createdAt,value
2018-05-27T00:01:42.105Z,3.20
2018-05-27T00:04:10.538Z,3.70
2018-05-27T00:06:38.968Z,3.97
2018-05-27T00:09:07.476Z,4.13
2018-05-27T00:11:35.949Z,3.90
2018-05-27T00:14:04.411Z,3.93
2018-05-27T00:16:32.877Z,4.40
2018-05-27T00:19:01.304Z,4.00
2018-05-27T00:21:29.744Z,3.77
2018-05-27T00:23:58.220Z,3.63
2018-05-27T00:26:26.648Z,4.17
2018-05-27T00:28:55.080Z,3.87
2018-05-27T00:31:23.544Z,3.90
2018-05-27T00:33:51.979Z,3.70
2018-05-27T00:36:20.429Z,3.80
2018-05-27T00:38:48.897Z,4.10
2018-05-27T00:41:17.325Z,4.07
2018-05-27T00:43:45.756Z,3.90
2018-05-27T00:46:14.230Z,3.50
2018-05-27T00:48:42.659Z,3.73
2018-05-27T00:51:11.090Z,3.60
2018-05-27T00:53:51.407Z,4.00
2018-05-27T00:56:19.841Z,3.83
2018-05-27T00:58:48.285Z,3.80
2018-05-27T01:01:16.788Z,3.70
2018-05-27T01:03:45.243Z,3.60
2018-05-27T01:06:13.664Z,4.03
2018-05-27T01:08:42.156Z,4.03
2018-05-27T01:11:10.596Z,4.00
2018-05-27T01:13:39.026Z,4.50
2018-05-27T01:16:07.496Z,4.60
2018-05-27T01:18:35.964Z,4.63
2018-05-27T01:21:04.387Z,5.20
2018-05-27T01:23:32.872Z,5.80
2018-05-27T01:26:01.297Z,5.57
2018-05-27T01:28:29.756Z,6.07
2018-05-27T01:30:58.233Z,5.63
2018-05-27T01:33:26.663Z,6.40
2018-05-27T01:35:55.106Z,5.70
2018-05-27T01:38:23.577Z,5.97
2018-05-27T01:40:52.005Z,5.83
2018-05-27T01:43:20.447Z,7.13
2018-05-27T01:45:48.937Z,6.60
2018-05-27T01:48:17.373Z,5.93
2018-05-27T01:50:45.811Z,5.60
2018-05-27T01:53:20.111Z,5.27
2018-05-27T01:55:48.530Z,5.10
2018-05-27T01:58:16.949Z,4.90
2018-05-27T02:00:45.405Z,4.50
2018-05-27T02:03:13.831Z,5.10
2018-05-27T02:05:42.253Z,5.60
2018-05-27T02:08:10.714Z,5.80
2018-05-27T02:10:39.157Z,5.90
2018-05-27T02:13:07.574Z,6.73
2018-05-27T02:15:36.058Z,6.83
2018-05-27T02:18:04.532Z,6.60
2018-05-27T02:20:32.959Z,7.30
2018-05-27T02:23:01.422Z,7.10
2018-05-27T02:25:29.863Z,6.43
2018-05-27T02:27:58.723Z,7.10
2018-05-27T02:30:27.196Z,7.60
2018-05-27T02:32:55.630Z,7.67
2018-05-27T02:35:24.068Z,7.23
2018-05-27T02:37:52.529Z,7.20
2018-05-27T02:40:20.967Z,6.20
2018-05-27T02:42:49.471Z,6.67
2018-05-27T02:45:17.949Z,6.13
2018-05-27T02:47:46.395Z,7.27
2018-05-27T02:50:14.822Z,5.97
2018-05-27T02:52:43.298Z,6.60
2018-05-27T02:55:12.446Z,6.97
2018-05-27T02:57:40.882Z,6.83
2018-05-27T03:00:09.373Z,6.60
2018-05-27T03:02:37.808Z,7.50
2018-05-27T03:05:06.250Z,7.50
2018-05-27T03:07:34.740Z,6.87
2018-05-27T03:10:03.183Z,6.63
2018-05-27T03:12:31.604Z,6.87
2018-05-27T03:15:00.070Z,6.67
2018-05-27T03:17:28.501Z,6.60
2018-05-27T03:19:56.949Z,5.53
2018-05-27T03:22:25.428Z,5.47
2018-05-27T03:24:53.873Z,5.70
2018-05-27T03:27:22.318Z,5.17
2018-05-27T03:29:50.796Z,6.07
2018-05-27T03:32:19.225Z,6.40
2018-05-27T03:34:47.639Z,6.40
2018-05-27T03:37:16.109Z,6.63
2018-05-27T03:39:44.526Z,6.90
2018-05-27T03:42:12.947Z,6.97
2018-05-27T03:44:41.414Z,6.97
2018-05-27T03:47:09.840Z,7.10
2018-05-27T03:49:38.276Z,6.73
2018-05-27T03:52:06.741Z,7.30
2018-05-27T03:54:35.187Z,7.07
2018-05-27T03:57:03.624Z,7.27
2018-05-27T03:59:33.021Z,6.80
2018-05-27T04:02:01.476Z,7.43
2018-05-27T04:04:53.814Z,7.73
2018-05-27T04:07:34.134Z,8.07
2018-05-27T04:10:02.607Z,7.20
2018-05-27T04:12:31.060Z,7.23
2018-05-27T04:14:59.494Z,7.63
2018-05-27T04:17:27.996Z,7.03
2018-05-27T04:19:56.437Z,7.40
2018-05-27T04:22:24.869Z,7.47
2018-05-27T04:24:53.329Z,7.43
2018-05-27T04:27:21.748Z,8.07
2018-05-27T04:29:50.168Z,7.20
2018-05-27T04:32:18.653Z,8.67
2018-05-27T04:34:47.098Z,8.07
2018-05-27T04:37:15.515Z,6.80
2018-05-27T04:39:43.977Z,8.13
2018-05-27T04:42:12.413Z,8.10
2018-05-27T04:44:40.849Z,8.20
2018-05-27T04:47:09.356Z,7.97
2018-05-27T04:49:37.804Z,7.90
2018-05-27T04:52:06.245Z,8.07
2018-05-27T04:54:34.729Z,7.70
2018-05-27T04:57:03.145Z,8.10
2018-05-27T04:59:31.570Z,8.10
2018-05-27T05:02:00.048Z,8.40
2018-05-27T05:04:28.480Z,7.37
2018-05-27T05:06:56.921Z,7.93
2018-05-27T05:09:25.426Z,8.50
2018-05-27T05:11:53.869Z,8.10
2018-05-27T05:14:22.305Z,7.97
2018-05-27T05:16:50.793Z,8.87
2018-05-27T05:19:19.237Z,8.10
2018-05-27T05:21:47.709Z,7.87
2018-05-27T05:24:16.193Z,8.60
2018-05-27T05:26:44.628Z,7.90
2018-05-27T05:29:13.058Z,7.90
2018-05-27T05:31:41.541Z,7.83
2018-05-27T05:34:09.965Z,8.20
2018-05-27T05:36:38.400Z,7.97
2018-05-27T05:39:06.888Z,8.40
2018-05-27T05:41:35.316Z,7.77
2018-05-27T05:44:03.787Z,7.57
2018-05-27T05:46:32.283Z,8.10
2018-05-27T05:49:00.706Z,8.30
2018-05-27T05:51:29.143Z,7.63
2018-05-27T05:53:57.636Z,7.90
2018-05-27T05:56:26.072Z,7.73
2018-05-27T05:58:54.518Z,8.47
2018-05-27T06:01:22.998Z,7.13
2018-05-27T06:03:51.446Z,7.70
2018-05-27T06:06:20.155Z,7.00
2018-05-27T06:08:48.670Z,7.87
2018-05-27T06:11:17.116Z,8.60
2018-05-27T06:13:45.564Z,8.27
2018-05-27T06:16:14.049Z,8.37
2018-05-27T06:18:42.496Z,9.07
2018-05-27T06:21:10.943Z,8.60
2018-05-27T06:23:39.430Z,9.57
2018-05-27T06:26:07.865Z,8.23
2018-05-27T06:28:36.300Z,8.93
2018-05-27T06:31:04.780Z,8.60
2018-05-27T06:33:33.220Z,9.03
2018-05-27T06:36:01.667Z,9.23
2018-05-27T06:38:30.141Z,8.17
2018-05-27T06:40:58.572Z,9.03
2018-05-27T06:43:27.032Z,9.67
2018-05-27T06:45:55.488Z,8.30
2018-05-27T06:48:23.912Z,9.00
2018-05-27T06:50:52.362Z,9.13
2018-05-27T06:53:20.844Z,9.10
2018-05-27T06:55:49.303Z,8.83
2018-05-27T06:58:17.739Z,8.60
2018-05-27T07:00:46.268Z,8.87
2018-05-27T07:03:14.739Z,8.47
2018-05-27T07:05:43.169Z,8.53
2018-05-27T07:08:11.630Z,8.50
2018-05-27T07:10:40.076Z,9.30
2018-05-27T07:13:08.526Z,8.90
2018-05-27T07:15:36.981Z,8.20
2018-05-27T07:18:05.427Z,8.87
2018-05-27T07:20:33.845Z,8.33
2018-05-27T07:23:02.318Z,8.83
2018-05-27T07:25:30.744Z,8.50
2018-05-27T07:27:59.177Z,8.10
2018-05-27T07:30:27.664Z,7.50
2018-05-27T07:32:56.106Z,8.37
2018-05-27T07:35:24.528Z,7.60
2018-05-27T07:37:53.015Z,6.90
2018-05-27T07:40:21.453Z,8.30
2018-05-27T07:42:49.883Z,7.20
2018-05-27T07:45:18.362Z,7.23
2018-05-27T07:47:46.800Z,7.33
2018-05-27T07:50:15.260Z,7.30
2018-05-27T07:52:43.748Z,7.10
2018-05-27T07:55:12.176Z,7.47
2018-05-27T07:57:40.610Z,7.63
2018-05-27T08:00:09.080Z,6.90
2018-05-27T08:02:37.508Z,6.97
2018-05-27T08:05:05.966Z,6.43
2018-05-27T08:07:34.448Z,7.40
2018-05-27T08:10:02.865Z,7.10
2018-05-27T08:12:31.303Z,6.93
2018-05-27T08:14:59.797Z,6.27
2018-05-27T08:17:28.235Z,5.80
2018-05-27T08:19:56.670Z,6.00
2018-05-27T08:22:25.176Z,6.10
2018-05-27T08:24:53.616Z,6.33
2018-05-27T08:27:22.042Z,6.20
2018-05-27T08:29:50.718Z,5.90
2018-05-27T08:32:19.150Z,5.77
2018-05-27T08:34:47.580Z,6.17
2018-05-27T08:37:16.087Z,6.03
2018-05-27T08:39:44.811Z,6.28
2018-05-27T08:42:13.235Z,5.63
2018-05-27T08:44:41.715Z,5.63
2018-05-27T08:47:10.148Z,6.00
2018-05-27T08:49:38.576Z,5.37
2018-05-27T08:52:07.116Z,5.30
2018-05-27T08:54:35.547Z,5.43
2018-05-27T08:57:03.977Z,4.80
2018-05-27T08:59:32.454Z,5.07
2018-05-27T09:02:00.884Z,4.83
2018-05-27T09:04:29.308Z,4.17
2018-05-27T09:06:57.777Z,5.25
2018-05-27T09:09:26.220Z,4.32
2018-05-27T09:11:54.652Z,4.80
2018-05-27T09:14:23.120Z,4.70
2018-05-27T09:16:51.554Z,5.25
2018-05-27T09:19:19.986Z,4.97
2018-05-27T09:21:48.493Z,5.20
2018-05-27T09:24:16.913Z,5.00
2018-05-27T09:26:45.349Z,4.97
2018-05-27T09:29:13.833Z,4.68
2018-05-27T09:31:42.273Z,4.05
2018-05-27T09:34:10.699Z,4.50
2018-05-27T09:36:39.169Z,4.72
2018-05-27T09:39:07.661Z,4.30
2018-05-27T09:41:36.060Z,5.50
2018-05-27T09:44:04.551Z,4.30
2018-05-27T09:46:32.984Z,4.68
2018-05-27T09:49:01.421Z,4.37
2018-05-27T09:51:29.937Z,4.18
2018-05-27T09:53:58.354Z,4.40
2018-05-27T09:56:26.773Z,4.55
2018-05-27T09:58:55.242Z,4.68
2018-05-27T10:01:23.677Z,3.67
2018-05-27T10:03:52.112Z,4.70
2018-05-27T10:06:20.585Z,4.15
2018-05-27T10:08:49.016Z,4.20
2018-05-27T10:11:17.451Z,4.28
2018-05-27T10:13:45.926Z,4.25
2018-05-27T10:16:14.370Z,4.32
2018-05-27T10:18:42.804Z,4.72
2018-05-27T10:21:11.270Z,4.28
2018-05-27T10:23:39.684Z,5.07
2018-05-27T10:26:08.220Z,4.97
2018-05-27T10:28:36.654Z,5.05
2018-05-27T10:31:05.076Z,4.35
2018-05-27T10:33:33.501Z,4.93
2018-05-27T10:36:01.990Z,4.80
2018-05-27T10:38:30.418Z,4.80
2018-05-27T10:40:58.840Z,4.93
2018-05-27T10:43:27.296Z,4.75
2018-05-27T10:45:55.728Z,4.90
2018-05-27T10:48:24.166Z,5.25
2018-05-27T10:50:52.639Z,5.20
2018-05-27T10:53:21.066Z,5.22
2018-05-27T10:55:49.493Z,5.10
2018-05-27T10:58:17.970Z,5.65
2018-05-27T11:00:46.395Z,5.12
2018-05-27T11:03:14.821Z,4.57
2018-05-27T11:05:43.359Z,5.43
2018-05-27T11:08:11.763Z,5.37
2018-05-27T11:10:40.202Z,4.80
2018-05-27T11:13:08.681Z,5.22
2018-05-27T11:15:37.113Z,4.43
2018-05-27T11:18:05.540Z,5.12
2018-05-27T11:20:34.024Z,4.60
2018-05-27T11:23:02.452Z,4.40
2018-05-27T11:25:30.885Z,4.40
2018-05-27T11:27:59.370Z,4.12
2018-05-27T11:30:27.800Z,4.30
2018-05-27T11:32:56.230Z,4.85
2018-05-27T11:35:24.717Z,4.60
2018-05-27T11:37:53.160Z,4.22
2018-05-27T11:40:21.589Z,3.97
2018-05-27T11:42:50.063Z,4.65
2018-05-27T11:45:18.489Z,4.18
2018-05-27T11:47:46.926Z,4.05
2018-05-27T11:50:15.410Z,4.30
2018-05-27T11:52:43.842Z,3.95
2018-05-27T11:55:12.266Z,4.32
2018-05-27T11:57:40.750Z,4.37
2018-05-27T12:00:09.185Z,4.00
2018-05-27T12:02:37.616Z,4.25
2018-05-27T12:05:06.088Z,4.45
2018-05-27T12:07:34.544Z,4.07
2018-05-27T12:10:02.988Z,4.57
2018-05-27T12:12:31.475Z,4.12
2018-05-27T12:14:59.912Z,4.12
2018-05-27T12:17:28.336Z,4.18
2018-05-27T12:19:56.814Z,4.37
2018-05-27T12:22:25.249Z,4.07
2018-05-27T12:24:53.700Z,4.22
2018-05-27T12:27:22.187Z,4.22
2018-05-27T12:29:50.676Z,4.03
2018-05-27T12:32:19.096Z,4.32
2018-05-27T12:34:47.580Z,4.47
2018-05-27T12:37:16.001Z,4.03
2018-05-27T12:39:44.432Z,4.28
2018-05-27T12:42:12.928Z,4.18
2018-05-27T12:44:41.370Z,4.53
2018-05-27T12:47:09.788Z,4.10
2018-05-27T12:49:38.248Z,4.10
2018-05-27T12:52:06.676Z,4.20
2018-05-27T12:54:35.097Z,4.12
2018-05-27T12:57:03.616Z,4.32
2018-05-27T12:59:32.045Z,4.50
2018-05-27T13:02:00.478Z,4.82
2018-05-27T13:04:28.940Z,4.70
2018-05-27T13:06:57.377Z,4.40
2018-05-27T13:09:25.819Z,4.55
2018-05-27T13:11:54.304Z,4.93
2018-05-27T13:14:22.735Z,4.82
2018-05-27T13:16:51.269Z,4.80
2018-05-27T13:19:19.683Z,5.53
2018-05-27T13:21:48.112Z,5.15
2018-05-27T13:24:16.530Z,4.62
2018-05-27T13:26:45.012Z,4.65
2018-05-27T13:29:13.443Z,4.20
2018-05-27T13:31:41.872Z,5.35
2018-05-27T13:34:10.345Z,5.15
2018-05-27T13:36:38.771Z,4.87
2018-05-27T13:39:07.219Z,4.82
2018-05-27T13:41:35.689Z,5.03
2018-05-27T13:44:04.117Z,5.03
2018-05-27T13:46:32.565Z,4.72
2018-05-27T13:49:01.047Z,5.00
2018-05-27T13:51:29.489Z,4.65
2018-05-27T13:53:57.928Z,4.90
2018-05-27T13:56:26.423Z,5.35
2018-05-27T13:58:54.865Z,4.85
2018-05-27T14:01:23.293Z,5.43
2018-05-27T14:03:51.789Z,5.03
2018-05-27T14:06:20.220Z,4.60
2018-05-27T14:08:48.645Z,4.93
2018-05-27T14:11:17.116Z,4.37
2018-05-27T14:13:45.545Z,4.85
2018-05-27T14:16:13.987Z,4.68
2018-05-27T14:18:42.465Z,4.30
2018-05-27T14:21:10.906Z,4.22
2018-05-27T14:23:39.345Z,4.37
2018-05-27T14:26:07.841Z,4.18
2018-05-27T14:28:36.268Z,4.57
2018-05-27T14:31:04.692Z,4.50
2018-05-27T14:33:33.155Z,4.55
2018-05-27T14:36:01.576Z,4.28
2018-05-27T14:38:30.006Z,4.50
2018-05-27T14:40:58.465Z,4.65
2018-05-27T14:43:26.896Z,4.50
2018-05-27T14:45:55.356Z,4.78
2018-05-27T14:48:23.843Z,4.57
2018-05-27T14:50:52.280Z,4.65
2018-05-27T14:53:20.715Z,4.30
2018-05-27T14:55:49.192Z,5.20
2018-05-27T14:58:17.640Z,4.45
2018-05-27T15:00:46.080Z,4.57
2018-05-27T15:03:14.568Z,4.50
2018-05-27T15:05:43.012Z,5.03
2018-05-27T15:08:11.785Z,4.60
2018-05-27T15:10:40.281Z,5.05
2018-05-27T15:13:08.729Z,4.93
2018-05-27T15:15:37.168Z,5.12
2018-05-27T15:18:05.656Z,5.22
2018-05-27T15:20:34.090Z,5.47
2018-05-27T15:23:02.540Z,5.07
2018-05-27T15:25:31.010Z,5.45
2018-05-27T15:27:59.437Z,4.95
2018-05-27T15:30:27.876Z,5.22
2018-05-27T15:32:56.362Z,5.30
2018-05-27T15:35:24.792Z,5.53
2018-05-27T15:37:53.266Z,5.07
2018-05-27T15:40:21.744Z,4.78
2018-05-27T15:42:50.174Z,5.12
2018-05-27T15:45:18.622Z,5.50
2018-05-27T15:47:47.115Z,5.50
2018-05-27T15:50:15.559Z,5.45
2018-05-27T15:52:43.996Z,5.32
2018-05-27T15:55:12.468Z,5.22
2018-05-27T15:57:40.902Z,4.85
2018-05-27T16:00:09.330Z,5.40
2018-05-27T16:02:37.795Z,5.22
2018-05-27T16:05:06.241Z,5.35
2018-05-27T16:07:34.666Z,5.35
2018-05-27T16:10:03.179Z,5.30
2018-05-27T16:12:31.612Z,5.30
2018-05-27T16:15:00.056Z,5.50
2018-05-27T16:17:28.530Z,5.18
2018-05-27T16:19:56.970Z,5.60
2018-05-27T16:22:25.418Z,5.37
2018-05-27T16:24:53.899Z,5.10
2018-05-27T16:27:22.359Z,5.35
2018-05-27T16:29:50.808Z,5.85
2018-05-27T16:32:19.286Z,5.53
2018-05-27T16:34:47.719Z,5.40
2018-05-27T16:37:16.136Z,5.10
2018-05-27T16:39:44.612Z,5.82
2018-05-27T16:42:13.033Z,5.53
2018-05-27T16:44:41.473Z,5.87
2018-05-27T16:47:10.017Z,6.10
2018-05-27T16:49:38.453Z,6.30
2018-05-27T16:52:06.890Z,5.65
2018-05-27T16:54:35.374Z,6.00
2018-05-27T16:57:03.835Z,6.00
2018-05-27T16:59:32.280Z,5.95
2018-05-27T17:02:00.752Z,6.07
2018-05-27T17:04:29.198Z,6.20
2018-05-27T17:06:57.633Z,5.90
2018-05-27T17:09:26.113Z,6.00
2018-05-27T17:11:54.804Z,6.03
2018-05-27T17:20:07.041Z,5.57
2018-05-27T17:22:35.474Z,5.53
2018-05-27T17:25:03.953Z,4.35
2018-05-27T17:27:32.425Z,4.80
2018-05-27T17:30:00.861Z,3.87
2018-05-27T17:32:29.292Z,4.37
2018-05-27T17:34:57.793Z,4.28
2018-05-27T17:37:26.225Z,4.18
2018-05-27T17:39:54.657Z,4.40
2018-05-27T17:42:23.132Z,3.95
2018-05-27T17:44:51.570Z,4.32
2018-05-27T17:47:20.000Z,4.40
2018-05-27T17:49:48.485Z,4.50
2018-05-27T17:52:16.916Z,4.57
2018-05-27T17:54:45.362Z,5.18
2018-05-27T17:57:13.837Z,5.10
2018-05-27T17:59:42.261Z,4.68
2018-05-27T18:02:10.676Z,5.55
2018-05-27T18:04:39.144Z,5.75
2018-05-27T18:07:07.621Z,5.75
2018-05-27T18:09:36.049Z,5.50
2018-05-27T18:12:04.572Z,5.93
2018-05-27T18:14:33.035Z,5.37
2018-05-27T18:17:01.802Z,5.18
2018-05-27T18:19:30.298Z,6.00
2018-05-27T18:21:58.724Z,5.78
2018-05-27T18:24:27.147Z,5.68
2018-05-27T18:26:55.615Z,5.90
2018-05-27T18:29:24.049Z,6.30
2018-05-27T18:31:52.831Z,6.20
2018-05-27T18:34:21.285Z,5.72
2018-05-27T18:36:49.736Z,5.12
2018-05-27T18:39:18.233Z,5.37
2018-05-27T18:41:46.705Z,5.40
2018-05-27T18:44:15.128Z,5.75
2018-05-27T18:46:43.551Z,5.40
2018-05-27T18:49:12.011Z,5.60
2018-05-27T18:51:40.428Z,5.85
2018-05-27T18:54:08.849Z,6.03
2018-05-27T18:56:37.310Z,5.72
2018-05-27T18:59:05.768Z,6.12
2018-05-27T19:01:34.192Z,5.65
2018-05-27T19:04:02.682Z,5.97
2018-05-27T19:06:31.108Z,6.30
2018-05-27T19:08:59.540Z,7.25
2018-05-27T19:11:28.006Z,5.85
2018-05-27T19:13:56.421Z,6.18
2018-05-27T19:16:24.841Z,5.62
2018-05-27T19:18:53.321Z,5.37
2018-05-27T19:21:21.795Z,5.83
2018-05-27T19:23:50.205Z,5.70
2018-05-27T19:26:18.656Z,5.70
2018-05-27T19:28:47.068Z,5.90
2018-05-27T19:31:15.476Z,5.72
2018-05-27T19:33:43.947Z,5.57
2018-05-27T19:36:12.364Z,5.73
2018-05-27T19:38:40.777Z,5.10
2018-05-27T19:41:09.252Z,5.27
2018-05-27T19:43:37.670Z,5.93
2018-05-27T19:46:06.097Z,5.07
2018-05-27T19:48:34.561Z,5.57
2018-05-27T19:51:02.992Z,5.63
2018-05-27T19:53:31.433Z,5.23
2018-05-27T19:55:59.926Z,6.87
2018-05-27T19:58:28.636Z,8.07
2018-05-27T20:00:57.102Z,7.00
2018-05-27T20:03:25.600Z,6.30
2018-05-27T20:05:54.025Z,5.83
2018-05-27T20:08:22.455Z,6.30
2018-05-27T20:10:50.928Z,5.93
2018-05-27T20:13:19.351Z,6.70
2018-05-27T20:15:47.780Z,6.50
2018-05-27T20:18:16.235Z,6.70
2018-05-27T20:20:44.648Z,5.87
2018-05-27T20:23:13.072Z,5.90
2018-05-27T20:25:41.544Z,5.80
2018-05-27T20:28:09.955Z,6.47
2018-05-27T20:30:38.360Z,6.13
2018-05-27T20:33:06.813Z,6.60
2018-05-27T20:35:35.229Z,6.90
2018-05-27T20:38:03.661Z,5.77
2018-05-27T20:40:32.113Z,5.83
2018-05-27T20:43:00.528Z,5.97
2018-05-27T20:45:28.936Z,6.10
2018-05-27T20:47:57.392Z,6.40
2018-05-27T20:50:25.843Z,6.50
2018-05-27T20:52:54.252Z,6.70
2018-05-27T20:55:22.725Z,6.10
2018-05-27T20:57:51.135Z,6.37
2018-05-27T21:00:19.541Z,5.90
2018-05-27T21:02:47.278Z,5.20
2018-05-27T21:05:15.448Z,5.40
2018-05-27T21:07:43.870Z,5.83
2018-05-27T21:10:12.323Z,5.37
2018-05-27T21:12:40.733Z,5.43
2018-05-27T21:15:09.151Z,5.60
2018-05-27T21:17:37.605Z,5.90
2018-05-27T21:20:06.013Z,5.47
2018-05-27T21:22:34.466Z,5.47
2018-05-27T21:25:02.907Z,6.67
2018-05-27T21:27:31.332Z,6.70
2018-05-27T21:29:59.753Z,7.40
2018-05-27T21:32:28.205Z,6.77
2018-05-27T21:34:56.617Z,6.83
2018-05-27T21:37:25.031Z,7.63
2018-05-27T21:39:53.504Z,7.60
2018-05-27T21:42:21.917Z,7.03
2018-05-27T21:44:50.330Z,6.83
2018-05-27T21:47:18.791Z,7.07
2018-05-27T21:49:47.208Z,6.77
2018-05-27T21:52:15.612Z,7.27
2018-05-27T21:54:44.056Z,7.17
2018-05-27T21:57:12.462Z,7.70
2018-05-27T21:59:40.864Z,7.53
2018-05-27T22:02:09.324Z,7.83
2018-05-27T22:04:37.730Z,7.77
2018-05-27T22:07:06.158Z,7.20
2018-05-27T22:09:34.612Z,7.67
2018-05-27T22:12:03.024Z,7.27
2018-05-27T22:14:31.437Z,7.17
2018-05-27T22:16:59.891Z,7.80
2018-05-27T22:19:28.309Z,6.83
2018-05-27T22:21:56.718Z,7.30
2018-05-27T22:24:25.170Z,7.97
2018-05-27T22:26:53.586Z,7.67
2018-05-27T22:29:22.001Z,7.67
2018-05-27T22:31:50.459Z,8.10
2018-05-27T22:34:18.872Z,8.30
2018-05-27T22:36:47.296Z,7.07
2018-05-27T22:39:15.736Z,7.37
2018-05-27T22:41:44.148Z,7.93
2018-05-27T22:44:12.555Z,6.70
2018-05-27T22:46:41.107Z,8.40
2018-05-27T22:49:09.518Z,7.73
2018-05-27T22:51:37.944Z,7.80
2018-05-27T22:54:06.397Z,8.10
2018-05-27T22:56:34.800Z,7.57
2018-05-27T22:59:03.225Z,7.80
2018-05-27T23:01:31.711Z,7.87
2018-05-27T23:04:00.152Z,7.60
2018-05-27T23:06:28.560Z,8.13
2018-05-27T23:08:57.041Z,8.53
2018-05-27T23:11:25.453Z,7.70
2018-05-27T23:13:53.871Z,7.93
2018-05-27T23:16:22.342Z,8.30
2018-05-27T23:18:50.749Z,8.20
2018-05-27T23:21:19.171Z,7.93
2018-05-27T23:23:47.628Z,7.73
2018-05-27T23:26:16.045Z,8.17
2018-05-27T23:28:43.735Z,8.80
2018-05-27T23:31:11.949Z,8.63
2018-05-27T23:33:40.416Z,8.43
2018-05-27T23:36:08.871Z,9.10
2018-05-27T23:38:37.313Z,8.53
2018-05-27T23:41:05.740Z,9.50
2018-05-27T23:43:34.165Z,9.00
2018-05-27T23:46:02.622Z,8.57
2018-05-27T23:48:31.028Z,8.37
2018-05-27T23:50:59.530Z,8.97
2018-05-27T23:53:27.979Z,8.93
2018-05-27T23:55:56.394Z,9.37
2018-05-27T23:58:24.885Z,8.50
